Time;durP1;ratioP1;P1;durP2;ratioP2;P2;SDS_P1;SDS_P2;PMS_P1;PMS_P2;Temp;Humidity;BMP_temperature;BMP_pressure;BME280_temperature;BME280_humidity;BME280_pressure;Samples;Min_cycle;Max_cycle;Signal;HPM_P1;HPM_P2
2023/06/15 00:00:24;;;;;;;1.83;1.73;;;15.60;69.10;;;;;;5076778;28;20143;-72
2023/06/15 00:02:50;;;;;;;1.95;1.85;;;15.60;69.40;;;;;;5078197;28;20031;-74
2023/06/15 00:05:16;;;;;;;1.80;1.70;;;15.50;69.60;;;;;;5076186;28;20108;-74
2023/06/15 00:07:42;;;;;;;1.75;1.65;;;15.40;69.80;;;;;;5079293;28;20060;-74
2023/06/15 00:10:09;;;;;;;2.78;2.00;;;15.40;70.00;;;;;;5076156;28;20033;-74
2023/06/15 00:12:35;;;;;;;2.55;2.00;;;15.40;70.20;;;;;;5078435;28;20027;-74
2023/06/15 00:15:01;;;;;;;2.63;1.98;;;15.30;70.50;;;;;;5075039;28;20417;-74
2023/06/15 00:17:29;;;;;;;3.65;2.15;;;15.30;70.90;;;;;;5076098;28;20031;-74
2023/06/15 00:19:57;;;;;;;2.47;2.28;;;15.10;71.20;;;;;;5084892;28;20121;-74
2023/06/15 00:22:26;;;;;;;2.30;2.10;;;15.10;71.70;;;;;;5073744;28;20035;-73
2023/06/15 00:24:53;;;;;;;1.83;1.73;;;15.00;72.10;;;;;;5079506;28;20024;-74
2023/06/15 00:27:18;;;;;;;1.95;1.85;;;14.90;72.50;;;;;;5081996;28;20064;-73
2023/06/15 00:29:44;;;;;;;2.40;1.77;;;14.90;73.50;;;;;;5089154;28;20502;-75
2023/06/15 00:32:10;;;;;;;1.80;1.70;;;14.80;73.00;;;;;;5079542;28;20020;-73
2023/06/15 00:34:36;;;;;;;1.67;1.58;;;14.80;73.20;;;;;;5078297;28;20025;-73
2023/06/15 00:37:01;;;;;;;1.77;1.67;;;14.80;73.50;;;;;;5079270;28;20032;-73
2023/06/15 00:39:27;;;;;;;1.70;1.60;;;14.90;73.60;;;;;;5078501;28;20028;-72
2023/06/15 00:41:53;;;;;;;1.73;1.60;;;14.80;73.70;;;;;;5075303;28;20033;-75
2023/06/15 00:44:19;;;;;;;1.50;1.40;;;14.80;73.90;;;;;;5079116;28;20048;-74
2023/06/15 00:46:45;;;;;;;2.03;1.83;;;14.80;74.20;;;;;;5079833;28;20154;-74
2023/06/15 00:49:10;;;;;;;1.80;1.70;;;14.80;74.40;;;;;;5084631;28;20044;-73
2023/06/15 00:51:41;;;;;;;2.20;2.00;;;14.70;74.70;;;;;;5084838;28;20024;-73
2023/06/15 00:54:08;;;;;;;3.42;2.20;;;14.60;74.90;;;;;;5080369;28;20063;-74
2023/06/15 00:56:34;;;;;;;2.20;2.00;;;14.60;75.30;;;;;;5080243;28;20032;-73
2023/06/15 00:59:00;;;;;;;2.97;2.38;;;14.60;75.60;;;;;;5079580;28;20021;-74
2023/06/15 01:01:26;;;;;;;4.43;2.50;;;14.50;75.90;;;;;;5078666;28;20068;-74
2023/06/15 01:03:54;;;;;;;2.33;2.13;;;14.40;76.20;;;;;;5079765;28;20025;-75
2023/06/15 01:06:24;;;;;;;4.03;2.33;;;14.40;76.50;;;;;;5079310;28;20085;-74
2023/06/15 01:08:53;;;;;;;3.22;2.20;;;14.30;76.80;;;;;;5081133;28;20043;-74
2023/06/15 01:11:20;;;;;;;2.20;1.88;;;14.30;77.10;;;;;;5079919;28;20025;-74
2023/06/15 01:13:46;;;;;;;2.83;1.77;;;14.30;77.40;;;;;;5082901;28;20047;-74
2023/06/15 01:16:22;;;;;;;3.97;2.10;;;14.20;77.50;;;;;;5062578;28;20029;-74
2023/06/15 01:18:56;;;;;;;2.55;2.22;;;14.20;77.80;;;;;;5082215;28;20058;-76
2023/06/15 01:21:27;;;;;;;3.10;2.75;;;14.20;77.90;;;;;;5086803;28;20123;-75
2023/06/15 01:24:03;;;;;;;3.78;2.20;;;14.20;78.00;;;;;;5078869;28;20345;-77
2023/06/15 01:26:29;;;;;;;2.75;2.20;;;14.10;78.10;;;;;;5080400;28;20491;-74
2023/06/15 01:28:56;;;;;;;2.47;2.10;;;14.10;78.40;;;;;;5079270;28;20024;-74
2023/06/15 01:31:23;;;;;;;2.28;2.08;;;14.10;78.60;;;;;;5078979;28;20035;-76
2023/06/15 01:33:50;;;;;;;2.30;2.10;;;14.10;78.70;;;;;;5079307;28;20028;-74
2023/06/15 01:36:17;;;;;;;2.13;1.92;;;14.10;79.00;;;;;;5080127;28;20149;-74
2023/06/15 01:38:45;;;;;;;2.28;2.08;;;14.10;79.20;;;;;;5083712;28;20032;-74
2023/06/15 01:41:12;;;;;;;2.28;2.08;;;14.10;79.40;;;;;;5061775;28;20029;-74
2023/06/15 01:43:39;;;;;;;1.73;1.63;;;14.10;79.60;;;;;;5079125;28;20258;-75
2023/06/15 01:46:06;;;;;;;3.15;2.05;;;14.10;79.80;;;;;;5077895;28;20052;-75
2023/06/15 01:48:31;;;;;;;3.45;2.10;;;14.00;79.80;;;;;;5079741;28;20054;-74
2023/06/15 01:50:58;;;;;;;3.05;1.98;;;14.00;79.90;;;;;;5090634;28;20461;-73
2023/06/15 01:53:24;;;;;;;2.38;2.17;;;14.00;80.20;;;;;;5080058;28;20070;-73
2023/06/15 01:55:50;;;;;;;2.10;1.90;;;13.90;80.40;;;;;;5078415;28;20036;-74
2023/06/15 01:58:16;;;;;;;2.28;1.90;;;13.90;80.70;;;;;;5080082;28;20181;-73
2023/06/15 02:00:43;;;;;;;2.35;2.00;;;13.90;81.00;;;;;;5080356;28;20041;-75
2023/06/15 02:03:10;;;;;;;2.10;1.90;;;13.80;81.20;;;;;;5081611;28;20028;-74
2023/06/15 02:05:39;;;;;;;1.90;1.80;;;13.90;81.40;;;;;;5082841;28;20537;-74
2023/06/15 02:08:09;;;;;;;2.22;1.92;;;13.90;81.60;;;;;;5081973;28;20021;-74
2023/06/15 02:10:35;;;;;;;1.90;1.80;;;13.90;81.80;;;;;;5080185;28;20027;-74
2023/06/15 02:13:01;;;;;;;2.38;2.05;;;13.90;81.80;;;;;;5080534;28;20084;-75
2023/06/15 02:15:28;;;;;;;1.67;1.58;;;13.90;81.80;;;;;;5080537;28;20017;-74
2023/06/15 02:18:00;;;;;;;1.70;1.60;;;13.90;81.90;;;;;;5078297;28;20024;-74
2023/06/15 02:20:27;;;;;;;;;;;13.90;82.10;;;;;;5087771;28;20085;-74
2023/06/15 02:22:53;;;;;;;2.15;1.95;;;13.90;82.40;;;;;;5098399;28;20376;-74
2023/06/15 02:25:19;;;;;;;2.00;1.80;;;13.90;82.40;;;;;;5078262;28;20017;-73
2023/06/15 02:27:45;;;;;;;1.50;1.40;;;13.90;82.50;;;;;;5060326;28;20020;-75
2023/06/15 02:30:12;;;;;;;1.70;1.60;;;13.90;82.60;;;;;;5079232;28;20032;-74
2023/06/15 02:32:39;;;;;;;1.73;1.60;;;14.00;82.70;;;;;;5060773;28;20078;-75
2023/06/15 02:35:08;;;;;;;1.60;1.50;;;14.00;82.80;;;;;;5078294;28;20020;-74
2023/06/15 02:37:34;;;;;;;2.10;1.65;;;14.00;82.80;;;;;;5078509;28;20081;-74
2023/06/15 02:39:59;;;;;;;2.17;2.05;;;14.10;82.90;;;;;;5079298;28;20036;-73
2023/06/15 02:42:25;;;;;;;2.55;1.80;;;14.10;82.90;;;;;;5060903;28;20028;-75
2023/06/15 02:44:51;;;;;;;2.03;1.92;;;14.10;83.00;;;;;;5078195;28;20056;-73
2023/06/15 02:47:17;;;;;;;2.40;2.13;;;14.10;83.10;;;;;;5078452;28;20033;-74
2023/06/15 02:49:42;;;;;;;2.40;2.13;;;14.10;83.10;;;;;;5085707;28;20040;-74
2023/06/15 02:52:09;;;;;;;2.25;2.00;;;14.10;83.30;;;;;;5079907;28;20047;-75
2023/06/15 02:54:36;;;;;;;2.35;2.15;;;14.00;83.30;;;;;;5078545;28;20476;-73
2023/06/15 02:57:06;;;;;;;2.35;2.15;;;14.00;83.50;;;;;;5079725;28;20121;-73
2023/06/15 02:59:34;;;;;;;2.88;2.53;;;14.00;83.70;;;;;;5079703;28;20035;-73
2023/06/15 03:02:02;;;;;;;2.65;2.45;;;14.00;83.90;;;;;;5062359;28;20035;-74
2023/06/15 03:04:28;;;;;;;2.50;2.30;;;13.90;84.00;;;;;;5078639;28;20028;-73
2023/06/15 03:06:57;;;;;;;2.28;1.90;;;14.00;84.30;;;;;;5080645;28;20052;-75
2023/06/15 03:09:23;;;;;;;2.65;2.30;;;13.90;85.20;;;;;;5060852;28;20041;-74
2023/06/15 03:11:50;;;;;;;2.78;2.10;;;13.90;84.80;;;;;;5079743;28;20469;-74
2023/06/15 03:14:20;;;;;;;2.72;2.42;;;13.90;85.00;;;;;;5078258;28;20036;-75
2023/06/15 03:16:48;;;;;;;2.97;2.33;;;13.90;85.20;;;;;;5078556;28;20056;-74
2023/06/15 03:19:15;;;;;;;2.50;2.30;;;13.90;85.40;;;;;;5082849;28;20024;-74
2023/06/15 03:21:41;;;;;;;1.98;1.85;;;13.90;85.50;;;;;;5069420;28;20030;-75
2023/06/15 03:24:08;;;;;;;2.15;1.98;;;13.90;85.60;;;;;;5077880;28;20021;-74
2023/06/15 03:26:36;;;;;;;1.88;1.70;;;13.90;85.70;;;;;;5077552;28;20025;-73
2023/06/15 03:29:02;;;;;;;2.60;2.40;;;13.90;85.80;;;;;;5077948;28;20086;-73
2023/06/15 03:31:33;;;;;;;2.50;2.30;;;13.90;85.80;;;;;;5077874;28;20366;-72
2023/06/15 03:34:00;;;;;;;2.97;2.67;;;13.90;85.90;;;;;;5077935;28;20020;-73
2023/06/15 03:36:29;;;;;;;3.92;3.53;;;13.90;86.00;;;;;;5058921;28;20490;-73
2023/06/15 03:38:58;;;;;;;3.03;2.72;;;14.00;86.20;;;;;;5077683;28;20028;-74
2023/06/15 03:41:27;;;;;;;2.83;2.63;;;13.90;86.40;;;;;;5079011;28;20392;-74
2023/06/15 03:43:53;;;;;;;2.53;2.28;;;14.00;86.60;;;;;;5077280;28;20048;-76
2023/06/15 03:46:18;;;;;;;2.17;1.98;;;14.00;86.70;;;;;;5077963;28;20219;-73
2023/06/15 03:48:45;;;;;;;2.53;2.33;;;14.00;86.80;;;;;;5079519;28;20028;-74
2023/06/15 03:51:11;;;;;;;3.65;2.33;;;14.00;86.90;;;;;;5091403;28;20013;-73
2023/06/15 03:53:41;;;;;;;2.40;2.20;;;14.10;87.10;;;;;;5077479;28;20040;-75
2023/06/15 03:56:06;;;;;;;2.22;2.03;;;14.10;87.20;;;;;;5058716;28;20032;-74
2023/06/15 03:58:32;;;;;;;2.30;2.10;;;14.20;87.20;;;;;;5077453;28;20495;-74
2023/06/15 04:00:57;;;;;;;2.47;2.15;;;14.20;87.00;;;;;;5077091;28;20548;-74
2023/06/15 04:03:23;;;;;;;1.85;1.75;;;14.20;86.80;;;;;;5061230;28;20024;-75
2023/06/15 04:05:49;;;;;;;1.92;1.73;;;14.30;86.70;;;;;;5059892;28;20044;-74
2023/06/15 04:08:15;;;;;;;1.70;1.60;;;14.40;86.60;;;;;;5078164;28;20048;-73
2023/06/15 04:10:40;;;;;;;2.28;1.80;;;14.50;85.90;;;;;;5062610;28;20016;-74
2023/06/15 04:13:06;;;;;;;2.53;2.05;;;14.50;85.30;;;;;;5065590;28;20028;-74
2023/06/15 04:15:32;;;;;;;1.77;1.67;;;14.60;85.10;;;;;;5082330;28;20017;-74
2023/06/15 04:18:00;;;;;;;2.20;2.03;;;14.70;85.10;;;;;;5085651;28;20080;-75
2023/06/15 04:20:28;;;;;;;1.70;1.60;;;14.80;84.30;;;;;;5074861;28;20044;-75
2023/06/15 04:22:57;;;;;;;1.83;1.73;;;15.00;83.80;;;;;;5087319;28;20036;-75
2023/06/15 04:25:23;;;;;;;2.08;1.95;;;15.10;82.60;;;;;;5111871;28;20083;-75
2023/06/15 04:27:49;;;;;;;2.47;2.28;;;15.20;81.70;;;;;;5101014;28;20056;-74
2023/06/15 04:30:16;;;;;;;2.20;2.00;;;15.30;81.30;;;;;;5081698;28;20081;-74
2023/06/15 04:32:46;;;;;;;2.42;2.22;;;15.30;80.90;;;;;;5081750;28;20013;-73
2023/06/15 04:35:17;;;;;;;1.95;1.80;;;15.40;81.00;;;;;;5079595;28;20016;-73
2023/06/15 04:37:44;;;;;;;2.10;1.90;;;15.40;80.70;;;;;;5080843;28;20016;-74
2023/06/15 04:40:10;;;;;;;2.53;2.22;;;15.50;80.40;;;;;;5062179;28;20020;-74
2023/06/15 04:42:40;;;;;;;2.00;1.90;;;;;;;;;;5081839;28;20035;-74
2023/06/15 04:45:07;;;;;;;2.05;1.90;;;15.70;78.80;;;;;;5080248;28;20025;-74
2023/06/15 04:47:32;;;;;;;1.85;1.70;;;15.80;79.00;;;;;;5079605;28;20021;-74
2023/06/15 04:49:58;;;;;;;2.33;1.70;;;15.90;78.50;;;;;;5088300;28;20040;-74
2023/06/15 04:52:24;;;;;;;2.33;1.60;;;16.00;77.90;;;;;;5076751;28;20165;-74
2023/06/15 04:54:49;;;;;;;1.75;1.65;;;16.10;77.70;;;;;;5099760;28;20121;-74
2023/06/15 04:57:15;;;;;;;1.70;1.60;;;16.10;77.30;;;;;;5099011;28;20048;-74
2023/06/15 04:59:41;;;;;;;1.67;1.58;;;16.20;76.80;;;;;;5079445;28;20028;-75
2023/06/15 05:02:07;;;;;;;2.17;1.48;;;16.20;76.60;;;;;;5081182;28;20032;-75
2023/06/15 05:04:33;;;;;;;1.60;1.50;;;16.30;76.30;;;;;;5083760;28;20024;-74
2023/06/15 05:06:59;;;;;;;1.80;1.70;;;16.40;76.20;;;;;;5083240;28;20044;-75
2023/06/15 05:09:24;;;;;;;1.08;1.08;;;16.60;75.50;;;;;;5064953;28;20021;-74
2023/06/15 05:11:50;;;;;;;1.70;1.60;;;16.60;75.10;;;;;;5087852;28;20056;-74
2023/06/15 05:14:16;;;;;;;0.98;0.98;;;16.70;74.80;;;;;;5087346;28;20028;-74
2023/06/15 05:16:41;;;;;;;1.10;1.10;;;16.80;74.30;;;;;;5084293;28;20547;-74
2023/06/15 05:19:07;;;;;;;1.60;1.50;;;16.80;74.00;;;;;;5086954;28;20132;-73
2023/06/15 05:21:32;;;;;;;1.27;1.17;;;17.00;73.80;;;;;;5083559;28;20036;-73
2023/06/15 05:23:58;;;;;;;1.35;1.25;;;17.10;73.40;;;;;;5080351;28;20096;-73
2023/06/15 05:26:25;;;;;;;1.30;1.27;;;17.10;72.80;;;;;;5080849;28;20044;-75
2023/06/15 05:28:52;;;;;;;1.60;1.50;;;17.20;72.30;;;;;;5081078;28;20009;-74
2023/06/15 05:31:18;;;;;;;1.60;1.50;;;17.20;72.00;;;;;;5082186;28;20441;-73
2023/06/15 05:33:44;;;;;;;2.08;1.67;;;17.20;72.20;;;;;;5087594;28;20059;-73
2023/06/15 05:36:09;;;;;;;1.90;1.67;;;17.20;71.80;;;;;;5083228;28;20111;-73
2023/06/15 05:38:35;;;;;;;2.42;2.20;;;17.30;71.60;;;;;;5082054;28;20077;-72
2023/06/15 05:41:01;;;;;;;2.55;2.30;;;17.40;71.00;;;;;;5080893;28;20021;-72
2023/06/15 05:43:27;;;;;;;2.30;2.10;;;17.60;70.80;;;;;;5080791;28;20111;-72
2023/06/15 05:45:52;;;;;;;2.70;2.25;;;18.10;70.50;;;;;;5082041;28;20024;-73
2023/06/15 05:48:19;;;;;;;4.70;2.42;;;;;;;;;;5085082;28;20024;-73
2023/06/15 05:50:45;;;;;;;3.13;2.35;;;19.20;65.80;;;;;;5071177;28;20024;-73
2023/06/15 05:53:11;;;;;;;2.35;2.15;;;19.30;66.10;;;;;;5079871;28;20469;-72
2023/06/15 05:55:37;;;;;;;2.42;2.20;;;19.60;65.30;;;;;;5076714;28;20088;-72
2023/06/15 05:58:03;;;;;;;3.60;2.25;;;19.80;63.90;;;;;;5077228;28;20021;-73
2023/06/15 06:00:30;;;;;;;1.90;1.80;;;19.80;63.00;;;;;;5076143;28;20032;-75
2023/06/15 06:03:01;;;;;;;1.83;1.67;;;19.70;63.10;;;;;;5076332;28;20078;-73
2023/06/15 06:05:26;;;;;;;3.97;2.20;;;19.80;63.20;;;;;;5058377;28;20056;-72
2023/06/15 06:07:52;;;;;;;2.40;2.20;;;19.60;62.80;;;;;;5078535;28;20496;-73
2023/06/15 06:10:19;;;;;;;2.33;2.20;;;19.20;63.40;;;;;;5077180;28;20081;-73
2023/06/15 06:12:44;;;;;;;2.78;2.58;;;19.00;64.00;;;;;;5080090;28;20021;-73
2023/06/15 06:15:10;;;;;;;3.20;2.63;;;18.80;64.50;;;;;;5083171;28;20036;-72
2023/06/15 06:17:36;;;;;;;3.90;2.30;;;18.70;64.90;;;;;;5083512;28;20135;-72
2023/06/15 06:20:03;;;;;;;4.15;2.83;;;18.70;65.20;;;;;;5093535;28;20051;-73
2023/06/15 06:22:29;;;;;;;2.95;2.67;;;18.80;65.10;;;;;;5081446;28;20039;-73
2023/06/15 06:24:54;;;;;;;3.03;2.38;;;18.90;64.70;;;;;;5104055;28;20056;-73
2023/06/15 06:27:20;;;;;;;2.60;2.40;;;18.90;64.50;;;;;;5104379;28;20169;-74
2023/06/15 06:29:46;;;;;;;2.83;2.63;;;18.90;64.60;;;;;;5086496;28;20047;-73
2023/06/15 06:32:11;;;;;;;2.28;2.08;;;19.00;64.90;;;;;;5088018;28;20016;-73
2023/06/15 06:34:37;;;;;;;2.22;2.03;;;19.40;65.50;;;;;;5082556;28;20020;-74
2023/06/15 06:37:04;;;;;;;3.13;2.60;;;20.10;63.20;;;;;;5076916;28;20042;-74
2023/06/15 06:39:30;;;;;;;2.65;2.15;;;20.30;61.80;;;;;;5057528;28;20033;-75
2023/06/15 06:41:56;;;;;;;2.10;1.90;;;20.20;61.40;;;;;;5075131;28;20090;-72
2023/06/15 06:44:22;;;;;;;2.50;2.30;;;20.20;61.60;;;;;;5073970;28;20025;-74
2023/06/15 06:46:47;;;;;;;2.17;1.92;;;20.10;61.30;;;;;;5075014;28;20082;-74
2023/06/15 06:49:13;;;;;;;2.53;2.13;;;20.10;61.60;;;;;;5079441;28;20024;-75
2023/06/15 06:51:39;;;;;;;1.90;1.80;;;20.20;62.00;;;;;;5079658;28;20503;-74
2023/06/15 06:54:05;;;;;;;1.83;1.73;;;20.50;61.50;;;;;;5075320;28;20110;-73
2023/06/15 06:56:30;;;;;;;1.70;1.60;;;20.80;60.30;;;;;;5075414;28;20103;-73
2023/06/15 06:58:56;;;;;;;1.60;1.50;;;21.40;60.10;;;;;;5057010;28;20381;-74
2023/06/15 07:01:22;;;;;;;1.88;1.77;;;22.90;57.80;;;;;;5075458;28;20024;-75
2023/06/15 07:03:47;;;;;;;2.42;2.22;;;23.30;54.70;;;;;;5076971;28;20124;-74
2023/06/15 07:06:14;;;;;;;3.90;2.35;;;;;;;;;;5074760;28;20024;-74
2023/06/15 07:08:40;;;;;;;2.83;2.38;;;22.30;54.60;;;;;;5075772;28;20028;-75
2023/06/15 07:11:05;;;;;;;3.15;2.47;;;21.90;55.90;;;;;;5075503;28;20020;-74
2023/06/15 07:13:34;;;;;;;2.58;2.33;;;21.70;56.80;;;;;;5074716;28;20039;-74
2023/06/15 07:16:00;;;;;;;3.05;2.08;;;21.80;57.70;;;;;;5074563;28;20470;-75
2023/06/15 07:18:26;;;;;;;2.20;2.10;;;23.10;55.80;;;;;;5056622;28;20036;-74
2023/06/15 07:20:54;;;;;;;2.75;2.00;;;24.10;53.20;;;;;;5084191;28;20029;-75
2023/06/15 07:23:24;;;;;;;2.05;1.90;;;24.30;51.70;;;;;;5076863;28;20082;-75
2023/06/15 07:25:53;;;;;;;2.05;1.95;;;24.10;51.90;;;;;;5075614;28;20055;-75
2023/06/15 07:28:19;;;;;;;2.03;1.92;;;23.70;51.80;;;;;;5076818;28;20489;-75
2023/06/15 07:30:49;;;;;;;2.72;2.53;;;23.20;52.90;;;;;;5056767;28;20082;-75
2023/06/15 07:33:15;;;;;;;2.95;2.40;;;23.10;53.10;;;;;;5074135;28;20095;-75
2023/06/15 07:35:41;;;;;;;3.10;2.90;;;22.80;53.50;;;;;;5077501;28;20027;-74
2023/06/15 07:38:07;;;;;;;3.72;2.60;;;22.70;53.80;;;;;;5077291;28;20036;-74
2023/06/15 07:40:33;;;;;;;3.50;2.75;;;22.60;54.20;;;;;;5076956;28;20025;-74
2023/06/15 07:42:59;;;;;;;4.30;3.03;;;22.50;54.50;;;;;;5058519;28;20120;-74
2023/06/15 07:45:24;;;;;;;3.17;2.90;;;22.10;55.10;;;;;;5064025;28;20081;-74
2023/06/15 07:47:50;;;;;;;5.18;3.13;;;21.90;56.20;;;;;;5080046;28;20028;-74
2023/06/15 07:50:16;;;;;;;3.13;2.83;;;21.80;56.30;;;;;;5088531;28;20032;-75
2023/06/15 07:52:41;;;;;;;2.80;2.55;;;21.70;56.90;;;;;;5096987;28;20028;-74
2023/06/15 07:55:07;;;;;;;2.83;2.60;;;21.90;57.40;;;;;;5078964;28;20084;-74
2023/06/15 07:57:34;;;;;;;2.63;2.25;;;22.10;56.60;;;;;;5078719;28;20369;-76
2023/06/15 08:00:05;;;;;;;3.28;2.53;;;22.00;57.10;;;;;;5080270;28;20032;-75
2023/06/15 08:02:31;;;;;;;2.45;2.25;;;22.10;56.90;;;;;;5061233;28;20054;-75
2023/06/15 08:04:56;;;;;;;2.70;2.45;;;22.10;56.00;;;;;;5078373;28;20032;-74
2023/06/15 08:07:22;;;;;;;3.20;2.70;;;21.90;55.70;;;;;;5079168;28;20032;-75
2023/06/15 08:09:48;;;;;;;3.60;2.88;;;21.80;56.00;;;;;;5078653;28;20008;-75
2023/06/15 08:12:14;;;;;;;3.80;2.60;;;21.60;56.40;;;;;;5078541;28;20021;-75
2023/06/15 08:14:40;;;;;;;3.08;2.88;;;21.50;56.90;;;;;;5078115;28;20024;-75
2023/06/15 08:17:06;;;;;;;2.85;2.55;;;21.30;57.30;;;;;;5079574;28;20048;-75
2023/06/15 08:19:32;;;;;;;3.47;3.08;;;;;;;;;;5085435;28;20028;-75
2023/06/15 08:21:57;;;;;;;4.93;3.30;;;21.00;58.30;;;;;;5078823;28;20426;-75
2023/06/15 08:24:23;;;;;;;5.00;2.90;;;20.70;58.90;;;;;;5077589;28;20064;-74
2023/06/15 08:26:49;;;;;;;4.80;2.90;;;20.80;59.40;;;;;;5078030;28;20016;-74
2023/06/15 08:29:15;;;;;;;4.68;3.38;;;20.80;59.00;;;;;;5077236;28;20020;-73
2023/06/15 08:31:41;;;;;;;3.00;2.70;;;20.80;58.90;;;;;;5078358;28;20020;-73
2023/06/15 08:34:07;;;;;;;2.30;2.10;;;20.90;58.70;;;;;;5077441;28;20346;-75
2023/06/15 08:36:33;;;;;;;3.20;2.90;;;21.00;58.60;;;;;;5078374;28;20024;-74
2023/06/15 08:38:58;;;;;;;2.92;2.58;;;21.00;58.40;;;;;;5059102;28;20035;-74
2023/06/15 08:41:26;;;;;;;3.03;2.80;;;21.00;58.40;;;;;;5077081;28;20385;-74
2023/06/15 08:43:56;;;;;;;4.22;2.83;;;21.00;58.30;;;;;;5077471;28;20024;-74
2023/06/15 08:46:24;;;;;;;4.22;3.00;;;21.10;58.60;;;;;;5061733;28;20054;-75
2023/06/15 08:48:52;;;;;;;5.80;3.35;;;21.10;58.80;;;;;;5079161;28;20039;-74
2023/06/15 08:51:19;;;;;;;2.88;2.58;;;21.20;57.80;;;;;;5065711;28;20048;-74
2023/06/15 08:53:46;;;;;;;3.78;2.40;;;21.30;57.70;;;;;;5077501;28;20021;-74
2023/06/15 08:56:12;;;;;;;2.80;2.58;;;21.40;57.30;;;;;;5078507;28;20032;-74
2023/06/15 08:59:00;;;;;;;3.28;2.25;;;21.70;56.40;;;;;;5058968;28;20103;-74
2023/06/15 09:01:27;;;;;;;2.45;2.30;;;21.80;55.70;;;;;;5077626;28;20058;-73
2023/06/15 09:03:54;;;;;;;2.58;2.38;;;21.90;54.70;;;;;;5077351;28;20013;-74
2023/06/15 09:06:22;;;;;;;2.72;2.45;;;21.80;54.40;;;;;;5076669;28;20094;-75
2023/06/15 09:08:48;;;;;;;4.50;2.40;;;21.70;54.10;;;;;;5077382;28;20326;-75
2023/06/15 09:11:15;;;;;;;3.28;2.70;;;21.70;54.60;;;;;;5079313;28;20032;-75
2023/06/15 09:13:41;;;;;;;2.67;2.47;;;21.70;54.60;;;;;;5076001;28;20405;-76
2023/06/15 09:16:10;;;;;;;4.68;3.13;;;22.00;54.90;;;;;;5076062;28;20429;-75
2023/06/15 09:18:45;;;;;;;3.00;2.63;;;22.10;54.30;;;;;;5076372;28;20033;-75
2023/06/15 09:21:13;;;;;;;4.70;2.50;;;22.30;54.30;;;;;;5068513;28;20477;-74
2023/06/15 09:23:42;;;;;;;2.90;2.53;;;22.60;54.20;;;;;;5096652;28;20112;-75
2023/06/15 09:26:09;;;;;;;4.38;2.92;;;22.80;53.80;;;;;;5092422;28;20040;-74
2023/06/15 09:28:45;;;;;;;2.95;2.65;;;22.90;53.10;;;;;;5076192;28;20025;-73
2023/06/15 09:31:11;;;;;;;2.70;2.50;;;22.90;52.70;;;;;;5077322;28;20040;-73
2023/06/15 09:33:37;;;;;;;3.40;3.00;;;22.90;52.40;;;;;;5077244;28;20025;-74
2023/06/15 09:36:05;;;;;;;7.05;2.83;;;22.90;51.70;;;;;;5075902;28;20027;-74
2023/06/15 09:38:42;;;;;;;4.28;2.80;;;22.80;51.50;;;;;;5075256;28;20056;-74
2023/06/15 09:41:09;;;;;;;3.22;2.92;;;22.90;52.10;;;;;;5076041;28;20020;-74
2023/06/15 09:43:39;;;;;;;2.85;2.60;;;23.20;51.70;;;;;;5076395;28;20383;-74
2023/06/15 09:46:10;;;;;;;2.85;2.50;;;23.30;51.30;;;;;;5077278;28;20024;-75
2023/06/15 09:48:40;;;;;;;2.70;2.50;;;23.20;49.80;;;;;;5057102;28;20028;-75
2023/06/15 09:51:06;;;;;;;5.47;2.70;;;23.30;49.90;;;;;;5076568;28;20424;-76
2023/06/15 09:53:34;;;;;;;5.40;2.38;;;23.30;49.90;;;;;;5075595;28;20402;-74
2023/06/15 09:56:00;;;;;;;4.00;2.60;;;23.30;48.70;;;;;;5074739;28;20033;-76
2023/06/15 09:58:27;;;;;;;3.92;3.10;;;23.40;48.40;;;;;;5075438;28;20035;-75
2023/06/15 10:00:58;;;;;;;2.50;2.30;;;23.60;49.70;;;;;;5076109;28;20052;-75
2023/06/15 10:03:25;;;;;;;2.50;2.33;;;23.90;49.10;;;;;;5075715;28;20088;-74
2023/06/15 10:05:58;;;;;;;3.13;2.05;;;24.10;47.70;;;;;;5074826;28;20039;-74
2023/06/15 10:08:25;;;;;;;2.67;2.30;;;;;;;;;;5074808;28;20071;-74
2023/06/15 10:10:51;;;;;;;4.57;2.70;;;25.30;45.50;;;;;;5057113;28;20050;-74
2023/06/15 10:13:30;;;;;;;3.42;3.13;;;25.50;45.10;;;;;;5075878;28;20020;-74
2023/06/15 10:15:59;;;;;;;5.82;2.80;;;25.50;44.80;;;;;;5077193;28;20107;-74
2023/06/15 10:18:27;;;;;;;3.20;2.78;;;25.30;45.20;;;;;;5077594;28;20182;-75
2023/06/15 10:20:54;;;;;;;2.80;2.20;;;25.00;45.60;;;;;;5083671;28;20400;-77
2023/06/15 10:23:25;;;;;;;2.95;2.50;;;24.90;45.80;;;;;;5073954;28;20484;-73
2023/06/15 10:25:55;;;;;;;2.53;2.20;;;24.70;45.40;;;;;;5076406;28;20039;-73
2023/06/15 10:28:25;;;;;;;3.42;2.88;;;24.30;46.10;;;;;;5075886;28;20012;-74
2023/06/15 10:30:55;;;;;;;5.65;3.13;;;23.90;46.90;;;;;;5075662;28;20032;-77
2023/06/15 10:33:43;;;;;;;3.38;3.08;;;23.50;48.10;;;;;;5057589;28;20016;-75
2023/06/15 10:36:17;;;;;;;3.55;2.30;;;23.20;49.30;;;;;;5056221;28;20025;-74
2023/06/15 10:39:01;;;;;;;2.80;2.60;;;22.90;50.20;;;;;;5074948;28;20024;-73
2023/06/15 10:41:27;;;;;;;3.10;2.75;;;22.80;51.30;;;;;;5074163;28;20092;-75
2023/06/15 10:44:00;;;;;;;3.95;2.80;;;22.60;52.00;;;;;;5075429;28;20030;-76
2023/06/15 10:46:30;;;;;;;3.33;3.03;;;22.40;52.60;;;;;;5075483;28;20067;-74
2023/06/15 10:49:06;;;;;;;5.78;3.40;;;22.40;52.60;;;;;;5077664;28;20079;-74
2023/06/15 10:51:35;;;;;;;4.60;3.08;;;22.40;52.90;;;;;;5078891;28;20017;-75
2023/06/15 10:54:05;;;;;;;3.55;2.60;;;22.40;52.70;;;;;;5074788;28;20020;-75
2023/06/15 10:56:31;;;;;;;4.40;2.83;;;22.40;52.50;;;;;;5075081;28;20119;-74
2023/06/15 10:59:03;;;;;;;4.15;3.33;;;22.40;52.40;;;;;;5074856;28;20020;-74
2023/06/15 11:01:33;;;;;;;4.50;3.28;;;22.50;52.50;;;;;;5056664;28;20497;-75
2023/06/15 11:04:01;;;;;;;2.85;2.50;;;22.80;52.00;;;;;;5073721;28;20036;-75
2023/06/15 11:06:31;;;;;;;2.50;2.30;;;23.00;51.60;;;;;;5073727;28;20063;-74
2023/06/15 11:09:08;;;;;;;3.65;2.75;;;;;;;;;;5076867;28;20024;-74
2023/06/15 11:11:39;;;;;;;5.97;2.80;;;23.30;49.40;;;;;;5074926;28;20020;-75
2023/06/15 11:14:23;;;;;;;3.83;2.60;;;23.70;49.30;;;;;;5055511;28;20036;-75
2023/06/15 11:17:05;;;;;;;2.50;2.30;;;24.20;48.60;;;;;;5075340;28;20369;-75
2023/06/15 11:19:32;;;;;;;2.88;2.55;;;24.60;47.30;;;;;;5085301;28;20515;-73
2023/06/15 11:22:05;;;;;;;2.70;2.50;;;25.00;46.30;;;;;;5090958;28;20024;-74
2023/06/15 11:24:39;;;;;;;2.53;2.17;;;25.50;45.60;;;;;;5080244;28;20029;-74
2023/06/15 11:27:06;;;;;;;5.40;3.03;;;26.00;44.60;;;;;;5080821;28;20104;-75
2023/06/15 11:29:36;;;;;;;2.40;2.20;;;26.00;42.80;;;;;;5079254;28;20039;-75
2023/06/15 11:32:03;;;;;;;2.60;2.30;;;25.80;42.60;;;;;;5079442;28;20082;-75
2023/06/15 11:34:30;;;;;;;5.32;3.15;;;25.70;42.70;;;;;;5079424;28;20195;-73
2023/06/15 11:37:00;;;;;;;2.67;2.47;;;25.90;41.80;;;;;;5079023;28;20051;-75
2023/06/15 11:39:28;;;;;;;3.08;2.35;;;26.10;41.60;;;;;;5078839;28;20381;-76
2023/06/15 11:41:56;;;;;;;2.50;2.30;;;26.20;41.10;;;;;;5080882;28;20072;-74
2023/06/15 11:44:23;;;;;;;2.75;2.35;;;26.30;40.50;;;;;;5078654;28;20032;-75
2023/06/15 11:47:12;;;;;;;2.80;2.58;;;26.00;40.40;;;;;;5079332;28;20089;-75
2023/06/15 11:49:37;;;;;;;2.67;2.03;;;25.40;40.40;;;;;;5069459;28;20058;-76
2023/06/15 11:52:04;;;;;;;3.28;2.70;;;24.90;42.00;;;;;;5093359;28;20016;-76
2023/06/15 11:54:30;;;;;;;3.17;2.50;;;24.70;42.70;;;;;;5087571;28;20020;-76
2023/06/15 11:57:00;;;;;;;2.72;2.45;;;24.80;43.20;;;;;;5079489;28;20516;-76
2023/06/15 11:59:26;;;;;;;7.55;2.72;;;25.00;43.70;;;;;;5078018;28;20050;-76
2023/06/15 12:01:56;;;;;;;5.70;2.90;;;25.30;43.20;;;;;;5078048;28;20027;-76
2023/06/15 12:04:22;;;;;;;2.58;2.38;;;25.20;43.40;;;;;;5077384;28;20111;-76
2023/06/15 12:06:48;;;;;;;2.40;2.20;;;25.10;44.10;;;;;;5078859;28;20063;-76
2023/06/15 12:09:19;;;;;;;3.97;2.28;;;25.20;44.50;;;;;;5078794;28;20028;-75
2023/06/15 12:11:45;;;;;;;3.22;2.72;;;25.00;44.30;;;;;;5078376;28;20031;-75
2023/06/15 12:14:16;;;;;;;3.08;2.65;;;24.90;45.00;;;;;;5077896;28;20016;-76
2023/06/15 12:16:49;;;;;;;4.83;3.10;;;24.50;45.80;;;;;;5078024;28;20035;-75
2023/06/15 12:19:15;;;;;;;2.92;2.70;;;24.20;46.80;;;;;;5082411;28;20025;-75
2023/06/15 12:21:40;;;;;;;3.75;2.80;;;23.90;47.40;;;;;;5089112;28;20089;-75
2023/06/15 12:24:14;;;;;;;3.38;3.08;;;23.60;48.10;;;;;;5098012;28;20032;-76
2023/06/15 12:26:40;;;;;;;3.03;2.65;;;23.40;48.60;;;;;;5076762;28;20445;-76
2023/06/15 12:29:16;;;;;;;3.85;2.85;;;23.30;49.00;;;;;;5077461;28;20074;-76
2023/06/15 12:31:42;;;;;;;3.03;2.72;;;23.30;49.10;;;;;;5078635;28;20020;-76
2023/06/15 12:34:09;;;;;;;2.95;2.50;;;23.20;48.80;;;;;;5075627;28;20119;-76
2023/06/15 12:36:39;;;;;;;3.88;2.92;;;23.10;48.80;;;;;;5076807;28;20017;-76
2023/06/15 12:39:07;;;;;;;3.05;2.75;;;23.20;49.60;;;;;;5076751;28;20086;-75
2023/06/15 12:41:37;;;;;;;2.83;2.60;;;23.30;49.10;;;;;;5077271;28;20502;-76
2023/06/15 12:44:03;;;;;;;2.92;2.63;;;23.60;48.60;;;;;;5077464;28;20468;-76
2023/06/15 12:46:29;;;;;;;2.33;2.13;;;23.80;47.60;;;;;;5078577;28;20036;-76
2023/06/15 12:48:54;;;;;;;3.25;2.95;;;23.70;47.10;;;;;;5078616;28;20481;-76